sensor_id;sensor_type;location;lat;lon;timestamp;P1;durP1;ratioP1;P2;durP2;ratioP2
72645;SDS011;60687;53.876;10.674;2023-07-31T00:03:05;5.07;;;1.30;;
72645;SDS011;60687;53.876;10.674;2023-07-31T00:13:09;5.30;;;1.40;;
72645;SDS011;60687;53.876;10.674;2023-07-31T00:23:11;4.82;;;1.10;;
72645;SDS011;60687;53.876;10.674;2023-07-31T00:33:14;6.00;;;1.50;;
72645;SDS011;60687;53.876;10.674;2023-07-31T00:43:17;4.73;;;1.50;;
72645;SDS011;60687;53.876;10.674;2023-07-31T00:53:21;6.25;;;1.65;;
72645;SDS011;60687;53.876;10.674;2023-07-31T01:03:25;6.37;;;1.90;;
72645;SDS011;60687;53.876;10.674;2023-07-31T01:13:29;6.30;;;1.70;;
72645;SDS011;60687;53.876;10.674;2023-07-31T01:23:36;6.28;;;1.58;;
72645;SDS011;60687;53.876;10.674;2023-07-31T01:33:54;5.70;;;1.50;;
72645;SDS011;60687;53.876;10.674;2023-07-31T01:44:01;5.47;;;1.40;;
72645;SDS011;60687;53.876;10.674;2023-07-31T01:54:05;7.15;;;1.70;;
72645;SDS011;60687;53.876;10.674;2023-07-31T02:04:09;5.93;;;1.40;;
72645;SDS011;60687;53.876;10.674;2023-07-31T02:14:12;6.90;;;1.50;;
72645;SDS011;60687;53.876;10.674;2023-07-31T02:24:15;6.33;;;1.47;;
72645;SDS011;60687;53.876;10.674;2023-07-31T02:34:19;6.13;;;1.50;;
72645;SDS011;60687;53.876;10.674;2023-07-31T02:44:21;5.73;;;1.57;;
72645;SDS011;60687;53.876;10.674;2023-07-31T02:54:25;5.87;;;1.53;;
72645;SDS011;60687;53.876;10.674;2023-07-31T03:04:27;7.43;;;1.80;;
72645;SDS011;60687;53.876;10.674;2023-07-31T03:14:34;8.93;;;1.90;;
72645;SDS011;60687;53.876;10.674;2023-07-31T03:24:36;6.73;;;1.80;;
72645;SDS011;60687;53.876;10.674;2023-07-31T03:34:40;5.22;;;1.90;;
72645;SDS011;60687;53.876;10.674;2023-07-31T03:44:43;6.40;;;1.83;;
72645;SDS011;60687;53.876;10.674;2023-07-31T03:54:46;5.57;;;1.80;;
72645;SDS011;60687;53.876;10.674;2023-07-31T04:04:50;7.43;;;1.97;;
72645;SDS011;60687;53.876;10.674;2023-07-31T04:14:53;6.10;;;1.83;;
72645;SDS011;60687;53.876;10.674;2023-07-31T04:24:56;7.07;;;2.30;;
72645;SDS011;60687;53.876;10.674;2023-07-31T04:34:59;7.77;;;2.17;;
72645;SDS011;60687;53.876;10.674;2023-07-31T04:45:05;7.40;;;2.10;;
72645;SDS011;60687;53.876;10.674;2023-07-31T04:55:10;7.47;;;2.03;;
72645;SDS011;60687;53.876;10.674;2023-07-31T05:05:13;7.83;;;2.03;;
72645;SDS011;60687;53.876;10.674;2023-07-31T05:15:16;6.55;;;2.40;;
72645;SDS011;60687;53.876;10.674;2023-07-31T05:25:19;8.63;;;2.83;;
72645;SDS011;60687;53.876;10.674;2023-07-31T05:35:23;7.20;;;2.73;;
72645;SDS011;60687;53.876;10.674;2023-07-31T05:45:26;7.70;;;3.20;;
72645;SDS011;60687;53.876;10.674;2023-07-31T05:55:44;8.05;;;3.65;;
72645;SDS011;60687;53.876;10.674;2023-07-31T06:05:48;7.43;;;3.13;;
72645;SDS011;60687;53.876;10.674;2023-07-31T06:15:51;6.73;;;3.20;;
72645;SDS011;60687;53.876;10.674;2023-07-31T06:25:54;7.90;;;3.10;;
72645;SDS011;60687;53.876;10.674;2023-07-31T06:35:57;6.20;;;2.53;;
72645;SDS011;60687;53.876;10.674;2023-07-31T06:46:00;6.43;;;2.93;;
72645;SDS011;60687;53.876;10.674;2023-07-31T06:56:07;8.30;;;2.83;;
72645;SDS011;60687;53.876;10.674;2023-07-31T07:06:10;5.93;;;2.47;;
72645;SDS011;60687;53.876;10.674;2023-07-31T07:16:14;6.67;;;2.80;;
72645;SDS011;60687;53.876;10.674;2023-07-31T07:26:17;6.73;;;2.70;;
72645;SDS011;60687;53.876;10.674;2023-07-31T07:36:21;5.90;;;2.47;;
72645;SDS011;60687;53.876;10.674;2023-07-31T07:46:25;6.30;;;2.70;;
72645;SDS011;60687;53.876;10.674;2023-07-31T07:56:28;5.97;;;2.50;;
72645;SDS011;60687;53.876;10.674;2023-07-31T08:06:31;6.38;;;2.80;;
72645;SDS011;60687;53.876;10.674;2023-07-31T08:16:35;6.30;;;2.80;;
72645;SDS011;60687;53.876;10.674;2023-07-31T08:26:37;6.10;;;2.10;;
72645;SDS011;60687;53.876;10.674;2023-07-31T08:36:41;6.07;;;2.50;;
72645;SDS011;60687;53.876;10.674;2023-07-31T08:46:43;5.65;;;2.10;;
72645;SDS011;60687;53.876;10.674;2023-07-31T08:56:48;5.33;;;1.60;;
72645;SDS011;60687;53.876;10.674;2023-07-31T09:06:53;5.20;;;1.77;;
72645;SDS011;60687;53.876;10.674;2023-07-31T09:17:00;5.13;;;1.30;;
72645;SDS011;60687;53.876;10.674;2023-07-31T09:27:05;3.90;;;1.33;;
72645;SDS011;60687;53.876;10.674;2023-07-31T09:37:11;3.83;;;1.07;;
72645;SDS011;60687;53.876;10.674;2023-07-31T09:57:35;3.67;;;1.17;;
72645;SDS011;60687;53.876;10.674;2023-07-31T10:07:45;3.97;;;1.20;;
72645;SDS011;60687;53.876;10.674;2023-07-31T10:17:56;3.60;;;1.13;;
72645;SDS011;60687;53.876;10.674;2023-07-31T10:28:00;4.07;;;1.27;;
72645;SDS011;60687;53.876;10.674;2023-07-31T10:38:10;6.10;;;1.30;;
72645;SDS011;60687;53.876;10.674;2023-07-31T10:48:14;3.43;;;0.90;;
72645;SDS011;60687;53.876;10.674;2023-07-31T10:58:19;4.57;;;1.35;;
72645;SDS011;60687;53.876;10.674;2023-07-31T11:08:22;4.57;;;1.10;;
72645;SDS011;60687;53.876;10.674;2023-07-31T11:18:27;3.93;;;1.30;;
72645;SDS011;60687;53.876;10.674;2023-07-31T11:28:31;3.92;;;1.15;;
72645;SDS011;60687;53.876;10.674;2023-07-31T11:38:36;3.50;;;1.10;;
72645;SDS011;60687;53.876;10.674;2023-07-31T11:48:39;3.37;;;0.70;;
72645;SDS011;60687;53.876;10.674;2023-07-31T11:58:43;3.72;;;1.13;;
72645;SDS011;60687;53.876;10.674;2023-07-31T12:08:48;4.43;;;0.93;;
72645;SDS011;60687;53.876;10.674;2023-07-31T12:18:52;3.13;;;0.90;;
72645;SDS011;60687;53.876;10.674;2023-07-31T12:28:54;4.35;;;0.93;;
72645;SDS011;60687;53.876;10.674;2023-07-31T12:38:59;3.70;;;1.10;;
72645;SDS011;60687;53.876;10.674;2023-07-31T12:49:01;3.97;;;1.10;;
72645;SDS011;60687;53.876;10.674;2023-07-31T12:59:05;4.43;;;1.25;;
72645;SDS011;60687;53.876;10.674;2023-07-31T13:09:07;3.63;;;0.85;;
72645;SDS011;60687;53.876;10.674;2023-07-31T13:19:12;5.00;;;1.30;;
72645;SDS011;60687;53.876;10.674;2023-07-31T13:29:15;4.10;;;1.40;;
72645;SDS011;60687;53.876;10.674;2023-07-31T13:39:18;5.15;;;1.30;;
72645;SDS011;60687;53.876;10.674;2023-07-31T13:49:21;4.80;;;1.30;;
72645;SDS011;60687;53.876;10.674;2023-07-31T13:59:24;4.73;;;1.30;;
72645;SDS011;60687;53.876;10.674;2023-07-31T14:09:29;4.25;;;1.30;;
72645;SDS011;60687;53.876;10.674;2023-07-31T14:19:32;5.00;;;1.03;;
72645;SDS011;60687;53.876;10.674;2023-07-31T14:29:35;4.27;;;1.30;;
72645;SDS011;60687;53.876;10.674;2023-07-31T14:39:38;4.03;;;1.20;;
72645;SDS011;60687;53.876;10.674;2023-07-31T14:49:41;4.32;;;1.17;;
72645;SDS011;60687;53.876;10.674;2023-07-31T14:59:44;4.63;;;1.10;;
72645;SDS011;60687;53.876;10.674;2023-07-31T15:09:47;4.33;;;1.00;;
72645;SDS011;60687;53.876;10.674;2023-07-31T15:19:51;4.20;;;1.02;;
72645;SDS011;60687;53.876;10.674;2023-07-31T15:29:53;4.37;;;1.17;;
72645;SDS011;60687;53.876;10.674;2023-07-31T15:39:57;5.07;;;1.27;;
72645;SDS011;60687;53.876;10.674;2023-07-31T15:49:59;5.00;;;1.20;;
72645;SDS011;60687;53.876;10.674;2023-07-31T16:00:03;5.43;;;1.40;;
72645;SDS011;60687;53.876;10.674;2023-07-31T16:10:08;4.27;;;1.20;;
72645;SDS011;60687;53.876;10.674;2023-07-31T16:20:13;4.45;;;1.20;;
72645;SDS011;60687;53.876;10.674;2023-07-31T16:30:15;6.83;;;1.90;;
72645;SDS011;60687;53.876;10.674;2023-07-31T16:40:19;5.40;;;1.60;;
72645;SDS011;60687;53.876;10.674;2023-07-31T16:50:21;4.60;;;1.08;;
72645;SDS011;60687;53.876;10.674;2023-07-31T17:00:28;4.60;;;1.20;;
72645;SDS011;60687;53.876;10.674;2023-07-31T17:10:31;4.07;;;1.10;;
72645;SDS011;60687;53.876;10.674;2023-07-31T17:20:38;5.93;;;1.50;;
72645;SDS011;60687;53.876;10.674;2023-07-31T17:30:40;5.78;;;1.55;;
72645;SDS011;60687;53.876;10.674;2023-07-31T17:40:45;4.37;;;1.13;;
72645;SDS011;60687;53.876;10.674;2023-07-31T17:50:51;5.20;;;1.50;;
72645;SDS011;60687;53.876;10.674;2023-07-31T18:00:57;4.57;;;1.40;;
72645;SDS011;60687;53.876;10.674;2023-07-31T18:10:59;4.57;;;1.20;;
72645;SDS011;60687;53.876;10.674;2023-07-31T18:21:06;6.37;;;2.10;;
72645;SDS011;60687;53.876;10.674;2023-07-31T18:31:09;5.18;;;1.60;;
72645;SDS011;60687;53.876;10.674;2023-07-31T18:41:12;5.60;;;1.85;;
72645;SDS011;60687;53.876;10.674;2023-07-31T18:51:15;5.23;;;1.80;;
72645;SDS011;60687;53.876;10.674;2023-07-31T19:01:19;5.63;;;1.63;;
72645;SDS011;60687;53.876;10.674;2023-07-31T19:11:27;5.50;;;1.65;;
72645;SDS011;60687;53.876;10.674;2023-07-31T19:21:31;5.43;;;1.80;;
72645;SDS011;60687;53.876;10.674;2023-07-31T19:31:33;5.50;;;1.40;;
72645;SDS011;60687;53.876;10.674;2023-07-31T19:41:37;4.82;;;1.40;;
72645;SDS011;60687;53.876;10.674;2023-07-31T19:51:40;7.20;;;2.00;;
72645;SDS011;60687;53.876;10.674;2023-07-31T20:01:45;7.40;;;2.80;;
72645;SDS011;60687;53.876;10.674;2023-07-31T20:11:50;7.00;;;2.63;;
72645;SDS011;60687;53.876;10.674;2023-07-31T20:21:57;7.57;;;2.60;;
72645;SDS011;60687;53.876;10.674;2023-07-31T20:31:59;6.97;;;2.57;;
72645;SDS011;60687;53.876;10.674;2023-07-31T20:42:03;7.93;;;3.17;;
72645;SDS011;60687;53.876;10.674;2023-07-31T20:52:06;8.10;;;3.53;;
72645;SDS011;60687;53.876;10.674;2023-07-31T21:02:10;8.37;;;4.10;;
72645;SDS011;60687;53.876;10.674;2023-07-31T21:12:12;7.83;;;3.30;;
72645;SDS011;60687;53.876;10.674;2023-07-31T21:22:16;7.60;;;3.20;;
72645;SDS011;60687;53.876;10.674;2023-07-31T21:32:18;8.17;;;4.10;;
72645;SDS011;60687;53.876;10.674;2023-07-31T21:42:22;8.77;;;4.03;;
72645;SDS011;60687;53.876;10.674;2023-07-31T21:52:25;10.20;;;4.40;;
72645;SDS011;60687;53.876;10.674;2023-07-31T22:02:28;8.68;;;4.72;;
72645;SDS011;60687;53.876;10.674;2023-07-31T22:12:31;8.90;;;3.90;;
72645;SDS011;60687;53.876;10.674;2023-07-31T22:22:35;8.63;;;3.80;;
72645;SDS011;60687;53.876;10.674;2023-07-31T22:32:39;7.38;;;2.85;;
72645;SDS011;60687;53.876;10.674;2023-07-31T22:42:43;7.50;;;2.40;;
72645;SDS011;60687;53.876;10.674;2023-07-31T22:52:45;6.27;;;2.10;;
72645;SDS011;60687;53.876;10.674;2023-07-31T23:02:50;5.65;;;2.05;;
72645;SDS011;60687;53.876;10.674;2023-07-31T23:12:52;4.50;;;1.27;;
72645;SDS011;60687;53.876;10.674;2023-07-31T23:22:56;5.50;;;1.40;;
72645;SDS011;60687;53.876;10.674;2023-07-31T23:32:59;5.03;;;1.35;;
72645;SDS011;60687;53.876;10.674;2023-07-31T23:43:03;3.90;;;1.20;;
72645;SDS011;60687;53.876;10.674;2023-07-31T23:53:05;5.27;;;1.40;;
